createdAt,value
2023-09-05T00:00:27.808Z,3.50
2023-09-05T00:02:59.522Z,5.00
2023-09-05T00:05:33.834Z,3.30
2023-09-05T00:08:05.511Z,3.20
2023-09-05T00:10:37.216Z,5.20
2023-09-05T00:13:12.330Z,5.10
2023-09-05T00:15:43.949Z,4.10
2023-09-05T00:18:15.485Z,3.60
2023-09-05T00:20:47.821Z,3.70
2023-09-05T00:23:19.414Z,5.30
2023-09-05T00:25:51.374Z,5.40
2023-09-05T00:28:23.744Z,3.20
2023-09-05T00:30:55.367Z,4.40
2023-09-05T00:33:27.727Z,3.90
2023-09-05T00:35:59.628Z,4.00
2023-09-05T00:38:31.307Z,3.20
2023-09-05T00:41:03.448Z,4.00
2023-09-05T00:43:34.997Z,4.50
2023-09-05T00:46:07.599Z,3.30
2023-09-05T00:48:41.990Z,4.40
2023-09-05T00:51:14.008Z,4.30
2023-09-05T00:53:45.633Z,5.40
2023-09-05T00:56:17.207Z,5.90
2023-09-05T00:58:48.785Z,4.00
2023-09-05T01:01:20.434Z,3.70
2023-09-05T01:03:57.350Z,5.80
2023-09-05T01:07:02.498Z,7.20
2023-09-05T01:09:43.032Z,4.00
2023-09-05T01:12:14.790Z,4.80
2023-09-05T01:14:46.353Z,3.70
2023-09-05T01:17:17.958Z,6.00
2023-09-05T01:19:54.698Z,5.80
2023-09-05T01:22:35.527Z,5.70
2023-09-05T01:25:09.462Z,3.80
2023-09-05T01:30:12.815Z,6.10
2023-09-05T01:32:45.212Z,5.20
2023-09-05T01:35:16.976Z,5.70
2023-09-05T01:37:48.513Z,6.80
2023-09-05T01:40:20.536Z,5.00
2023-09-05T01:42:52.061Z,4.90
2023-09-05T01:45:23.673Z,5.10
2023-09-05T01:47:55.357Z,6.00
2023-09-05T01:50:32.639Z,7.60
2023-09-05T01:53:04.413Z,5.30
2023-09-05T01:55:35.921Z,4.50
2023-09-05T01:58:07.514Z,4.40
2023-09-05T02:00:39.177Z,6.90
2023-09-05T02:03:11.807Z,4.60
2023-09-05T02:05:43.379Z,4.30
2023-09-05T02:08:14.936Z,5.30
2023-09-05T02:10:46.620Z,5.10
2023-09-05T02:13:18.448Z,5.70
2023-09-05T02:15:49.980Z,6.70
2023-09-05T02:18:21.611Z,4.00
2023-09-05T02:20:58.878Z,4.90
2023-09-05T02:23:30.485Z,5.60
2023-09-05T02:26:03.202Z,4.80
2023-09-05T02:28:35.348Z,5.80
2023-09-05T02:31:07.783Z,5.30
2023-09-05T02:33:39.664Z,5.20
2023-09-05T02:36:19.709Z,4.70
2023-09-05T02:38:51.624Z,4.70
2023-09-05T02:41:23.351Z,4.90
2023-09-05T02:43:54.937Z,6.00
2023-09-05T02:46:26.989Z,4.60
2023-09-05T02:48:58.567Z,3.30
2023-09-05T02:51:30.105Z,4.70
2023-09-05T02:54:01.770Z,3.10
2023-09-05T02:56:33.880Z,3.60
2023-09-05T02:59:05.448Z,3.90
2023-09-05T03:01:37.584Z,3.80
2023-09-05T03:04:09.252Z,4.50
2023-09-05T03:06:40.960Z,3.80
2023-09-05T03:09:12.593Z,3.50
2023-09-05T03:11:44.159Z,4.40
2023-09-05T03:14:15.713Z,3.50
2023-09-05T03:16:48.500Z,4.20
2023-09-05T03:19:23.347Z,4.30
2023-09-05T03:21:55.288Z,4.50
2023-09-05T03:24:27.526Z,4.10
2023-09-05T03:26:59.053Z,3.90
2023-09-05T03:29:31.088Z,3.40
2023-09-05T03:32:03.194Z,7.10
2023-09-05T03:34:35.827Z,3.50
2023-09-05T03:37:07.410Z,4.30
2023-09-05T03:39:38.937Z,5.30
2023-09-05T03:42:13.582Z,5.50
2023-09-05T03:44:45.197Z,4.10
2023-09-05T03:47:16.790Z,4.10
2023-09-05T03:49:48.397Z,4.50
2023-09-05T03:52:20.259Z,6.00
2023-09-05T03:54:51.766Z,7.90
2023-09-05T03:57:23.346Z,4.10
2023-09-05T03:59:54.938Z,4.60
2023-09-05T04:02:26.542Z,8.30
2023-09-05T04:04:58.103Z,4.40
2023-09-05T04:07:29.706Z,5.60
2023-09-05T04:10:01.288Z,5.40
2023-09-05T04:12:32.924Z,4.80
2023-09-05T04:15:04.916Z,4.90
2023-09-05T04:17:36.772Z,6.80
2023-09-05T04:20:08.990Z,4.70
2023-09-05T04:22:41.212Z,6.80
2023-09-05T04:25:12.774Z,6.40
2023-09-05T04:27:44.323Z,9.40
2023-09-05T04:30:16.034Z,5.80
2023-09-05T04:32:47.597Z,7.40
2023-09-05T04:35:19.232Z,6.70
2023-09-05T04:37:52.275Z,5.50
2023-09-05T04:40:23.916Z,6.50
2023-09-05T04:42:55.471Z,4.40
2023-09-05T04:45:27.153Z,5.90
2023-09-05T04:47:59.019Z,5.00
2023-09-05T04:50:30.673Z,6.90
2023-09-05T04:53:02.586Z,5.30
2023-09-05T04:55:34.178Z,10.30
2023-09-05T04:58:08.607Z,6.50
2023-09-05T05:00:42.153Z,3.70
2023-09-05T05:03:13.753Z,4.80
2023-09-05T05:05:58.348Z,4.50
2023-09-05T05:08:30.371Z,5.40
2023-09-05T05:11:06.629Z,5.10
2023-09-05T05:13:38.445Z,4.30
2023-09-05T05:16:10.246Z,4.10
2023-09-05T05:18:42.467Z,11.40
2023-09-05T05:21:14.203Z,4.10
2023-09-05T05:23:45.970Z,4.40
2023-09-05T05:26:17.576Z,3.80
2023-09-05T05:28:49.259Z,4.60
2023-09-05T05:31:21.032Z,3.70
2023-09-05T05:33:52.896Z,5.50
2023-09-05T05:36:25.015Z,3.60
2023-09-05T05:38:57.884Z,3.70
2023-09-05T05:41:30.124Z,4.30
2023-09-05T05:44:01.753Z,5.70
2023-09-05T05:46:33.419Z,6.00
2023-09-05T05:49:05.074Z,5.90
2023-09-05T05:51:38.702Z,6.70
2023-09-05T05:54:11.100Z,5.80
2023-09-05T05:56:43.076Z,4.80
2023-09-05T05:59:14.800Z,4.90
2023-09-05T06:01:46.581Z,2.70
2023-09-05T06:04:18.278Z,5.40
2023-09-05T06:06:50.609Z,4.80
2023-09-05T06:09:22.646Z,7.90
2023-09-05T06:11:54.488Z,5.70
2023-09-05T06:14:26.231Z,4.20
2023-09-05T06:16:58.292Z,7.10
2023-09-05T06:19:30.050Z,4.90
2023-09-05T06:22:01.821Z,3.10
2023-09-05T06:24:33.590Z,3.80
2023-09-05T06:27:05.747Z,3.90
2023-09-05T06:29:37.481Z,5.30
2023-09-05T06:32:09.330Z,3.40
2023-09-05T06:34:41.661Z,4.80
2023-09-05T06:37:13.396Z,7.50
2023-09-05T06:39:45.257Z,5.00
2023-09-05T06:42:17.998Z,3.00
2023-09-05T06:44:49.739Z,4.70
2023-09-05T06:47:21.495Z,2.90
2023-09-05T06:49:53.257Z,4.90
2023-09-05T06:52:25.085Z,2.50
2023-09-05T06:54:56.829Z,3.00
2023-09-05T06:57:28.515Z,9.20
2023-09-05T07:00:01.962Z,8.40
2023-09-05T07:02:33.767Z,4.70
2023-09-05T07:05:06.529Z,4.00
2023-09-05T07:07:38.880Z,4.30
2023-09-05T07:10:10.767Z,4.40
2023-09-05T07:12:42.492Z,5.60
2023-09-05T07:15:14.159Z,5.20
2023-09-05T07:17:45.807Z,4.90
2023-09-05T07:20:17.571Z,3.90
2023-09-05T07:22:49.407Z,5.60
2023-09-05T07:25:21.068Z,3.90
2023-09-05T07:27:52.713Z,4.00
2023-09-05T07:30:25.806Z,3.30
2023-09-05T07:32:59.492Z,4.50
2023-09-05T07:35:31.365Z,4.00
2023-09-05T07:38:03.289Z,5.50
2023-09-05T07:40:34.974Z,7.80
2023-09-05T07:43:06.728Z,3.20
2023-09-05T07:45:38.404Z,3.70
2023-09-05T07:48:10.223Z,5.70
2023-09-05T07:50:41.981Z,4.70
2023-09-05T07:53:14.452Z,2.90
2023-09-05T07:55:46.272Z,3.70
2023-09-05T07:58:18.939Z,2.60
2023-09-05T08:00:51.135Z,2.80
2023-09-05T08:03:27.314Z,3.50
2023-09-05T08:05:59.028Z,2.80
2023-09-05T08:08:31.241Z,5.50
2023-09-05T08:11:02.999Z,3.00
2023-09-05T08:13:34.689Z,2.10
2023-09-05T08:16:06.989Z,4.10
2023-09-05T08:18:38.825Z,4.60
2023-09-05T08:21:10.524Z,2.90
2023-09-05T08:23:42.180Z,3.20
2023-09-05T08:26:13.797Z,2.70
2023-09-05T08:28:47.148Z,18.10
2023-09-05T08:31:19.396Z,2.20
2023-09-05T08:33:51.103Z,3.10
2023-09-05T08:36:23.109Z,4.30
2023-09-05T08:38:54.711Z,2.20
2023-09-05T08:41:26.570Z,1.70
2023-09-05T08:43:58.707Z,2.70
2023-09-05T08:46:31.393Z,4.80
2023-09-05T08:49:03.258Z,2.60
2023-09-05T08:51:40.250Z,2.80
2023-09-05T08:54:14.198Z,4.10
2023-09-05T08:56:46.168Z,7.00
2023-09-05T08:59:18.477Z,4.50
2023-09-05T09:01:50.316Z,2.00
2023-09-05T09:04:22.849Z,3.40
2023-09-05T09:06:58.401Z,3.20
2023-09-05T09:09:39.633Z,4.40
2023-09-05T09:12:11.569Z,3.70
2023-09-05T09:14:44.669Z,2.40
2023-09-05T09:19:48.471Z,3.30
2023-09-05T09:22:26.252Z,2.70
2023-09-05T09:24:57.941Z,3.00
2023-09-05T09:27:32.070Z,2.80
2023-09-05T09:30:07.978Z,4.40
2023-09-05T09:32:41.137Z,3.60
2023-09-05T09:35:13.130Z,2.90
2023-09-05T09:37:47.990Z,4.00
2023-09-05T09:40:19.618Z,2.20
2023-09-05T09:42:51.578Z,5.90
2023-09-05T09:45:26.675Z,4.30
2023-09-05T09:48:01.892Z,3.10
2023-09-05T09:50:33.665Z,8.70
2023-09-05T09:53:05.850Z,3.60
2023-09-05T09:55:40.790Z,7.50
2023-09-05T09:58:19.595Z,3.50
2023-09-05T10:00:52.309Z,5.20
2023-09-05T10:03:26.608Z,4.30
2023-09-05T10:06:02.196Z,1.80
2023-09-05T10:11:07.237Z,7.90
2023-09-05T10:13:41.539Z,8.60
2023-09-05T10:16:17.866Z,1.70
2023-09-05T10:18:51.595Z,5.30
2023-09-05T10:21:26.678Z,2.40
2023-09-05T10:23:59.464Z,13.00
2023-09-05T10:26:31.807Z,5.60
2023-09-05T10:29:44.972Z,5.20
2023-09-05T10:32:21.101Z,3.80
2023-09-05T10:34:53.089Z,3.80
2023-09-05T10:37:49.949Z,2.80
2023-09-05T10:40:37.003Z,3.70
2023-09-05T10:43:16.611Z,2.90
2023-09-05T10:45:56.823Z,3.40
2023-09-05T10:48:46.918Z,3.30
2023-09-05T10:51:18.682Z,2.50
2023-09-05T10:53:50.485Z,4.70
2023-09-05T10:56:41.839Z,5.00
2023-09-05T10:59:29.267Z,2.40
2023-09-05T11:02:06.354Z,6.50
2023-09-05T11:04:39.168Z,2.60
2023-09-05T11:07:13.043Z,3.40
2023-09-05T11:09:50.200Z,2.80
2023-09-05T11:12:22.785Z,4.20
2023-09-05T11:14:55.021Z,4.10
2023-09-05T11:17:28.526Z,2.10
2023-09-05T11:20:00.354Z,4.50
2023-09-05T11:22:32.178Z,3.90
2023-09-05T11:25:08.810Z,2.80
2023-09-05T11:27:41.783Z,3.70
2023-09-05T11:32:51.182Z,4.90
2023-09-05T11:35:22.926Z,5.90
2023-09-05T11:38:00.433Z,3.10
2023-09-05T11:40:32.125Z,4.60
2023-09-05T11:43:10.897Z,3.70
2023-09-05T11:45:44.921Z,2.70
2023-09-05T11:48:18.462Z,2.50
2023-09-05T11:50:51.053Z,2.40
2023-09-05T11:53:23.741Z,5.30
2023-09-05T11:55:55.918Z,8.70
2023-09-05T11:58:28.145Z,3.90
2023-09-05T12:01:00.052Z,5.80
2023-09-05T12:03:37.716Z,2.40
2023-09-05T12:06:10.326Z,4.70
2023-09-05T12:08:42.221Z,4.20
2023-09-05T12:11:25.513Z,6.30
2023-09-05T12:13:58.617Z,5.20
2023-09-05T12:16:30.433Z,4.50
2023-09-05T12:19:03.651Z,4.70
2023-09-05T12:21:46.958Z,2.60
2023-09-05T12:24:25.776Z,4.50
2023-09-05T12:27:01.128Z,4.20
2023-09-05T12:29:41.703Z,6.80
2023-09-05T12:32:13.556Z,3.20
2023-09-05T12:34:45.213Z,4.30
2023-09-05T12:37:16.786Z,2.70
2023-09-05T12:39:48.988Z,3.20
2023-09-05T12:42:20.582Z,7.10
2023-09-05T12:44:53.830Z,20.50
2023-09-05T12:47:25.515Z,2.90
2023-09-05T12:50:10.451Z,2.10
2023-09-05T12:52:45.155Z,2.50
2023-09-05T12:55:17.035Z,3.80
2023-09-05T12:57:48.790Z,3.10
2023-09-05T13:00:21.231Z,2.50
2023-09-05T13:02:52.942Z,3.50
2023-09-05T13:05:27.929Z,5.00
2023-09-05T13:08:00.560Z,4.10
2023-09-05T13:10:32.238Z,3.60
2023-09-05T13:13:05.940Z,2.90
2023-09-05T13:15:39.270Z,3.10
2023-09-05T13:18:11.964Z,4.40
2023-09-05T13:20:44.650Z,6.70
2023-09-05T13:23:17.239Z,10.30
2023-09-05T13:25:49.039Z,8.00
2023-09-05T13:28:20.681Z,3.40
2023-09-05T13:30:52.478Z,5.10
2023-09-05T13:33:24.668Z,5.70
2023-09-05T13:35:56.346Z,4.50
2023-09-05T13:38:28.388Z,3.50
2023-09-05T13:41:00.396Z,3.90
2023-09-05T13:43:32.576Z,4.30
2023-09-05T13:46:04.272Z,5.10
2023-09-05T13:48:36.069Z,6.40
2023-09-05T13:51:08.328Z,2.40
2023-09-05T13:53:40.034Z,4.70
2023-09-05T13:56:11.853Z,11.70
2023-09-05T13:58:44.429Z,3.80
2023-09-05T14:01:16.736Z,3.70
2023-09-05T14:03:49.611Z,5.40
2023-09-05T14:06:21.746Z,4.10
2023-09-05T14:08:53.478Z,6.50
2023-09-05T14:11:25.265Z,3.50
2023-09-05T14:13:56.866Z,6.30
2023-09-05T14:16:28.489Z,3.40
2023-09-05T14:19:00.359Z,4.00
2023-09-05T14:21:32.067Z,5.30
2023-09-05T14:24:03.937Z,4.00
2023-09-05T14:26:35.675Z,2.40
2023-09-05T14:29:08.880Z,9.00
2023-09-05T14:31:42.085Z,3.40
2023-09-05T14:34:13.808Z,2.60
2023-09-05T14:36:45.500Z,4.70
2023-09-05T14:39:18.141Z,9.30
2023-09-05T14:41:49.826Z,3.40
2023-09-05T14:44:23.758Z,5.00
2023-09-05T14:46:55.534Z,4.00
2023-09-05T14:49:27.471Z,3.70
2023-09-05T14:51:59.019Z,3.10
2023-09-05T14:54:32.965Z,5.50
2023-09-05T14:57:07.743Z,3.80
2023-09-05T14:59:39.514Z,5.00
2023-09-05T15:02:14.137Z,4.30
2023-09-05T15:04:48.094Z,4.60
2023-09-05T15:07:35.465Z,2.50
2023-09-05T15:10:28.293Z,3.40
2023-09-05T15:13:09.130Z,7.00
2023-09-05T15:16:19.434Z,3.60
2023-09-05T15:18:58.754Z,4.20
2023-09-05T15:21:50.678Z,4.40
2023-09-05T15:24:43.821Z,5.00
2023-09-05T15:27:36.645Z,5.80
2023-09-05T15:30:32.518Z,9.00
2023-09-05T15:33:07.022Z,4.20
2023-09-05T15:35:57.523Z,4.70
2023-09-05T15:39:17.188Z,4.10
2023-09-05T15:41:57.747Z,2.40
2023-09-05T15:44:51.451Z,2.70
2023-09-05T15:47:27.802Z,2.60
2023-09-05T15:50:21.308Z,6.20
2023-09-05T15:52:53.865Z,7.30
2023-09-05T15:55:32.175Z,5.40
2023-09-05T15:58:40.478Z,6.20
2023-09-05T16:01:14.487Z,4.90
2023-09-05T16:03:46.313Z,4.00
2023-09-05T16:06:20.126Z,4.50
2023-09-05T16:09:04.358Z,3.00
2023-09-05T16:14:25.337Z,5.30
2023-09-05T16:17:09.454Z,4.80
2023-09-05T16:19:41.139Z,4.20
2023-09-05T16:22:16.747Z,3.80
2023-09-05T16:25:02.209Z,3.30
2023-09-05T16:27:49.029Z,3.00
2023-09-05T16:30:49.522Z,4.50
2023-09-05T16:33:25.384Z,3.60
2023-09-05T16:36:23.483Z,3.20
2023-09-05T16:38:57.186Z,3.70
2023-09-05T16:41:36.048Z,4.80
2023-09-05T16:44:09.720Z,4.50
2023-09-05T16:49:36.835Z,6.00
2023-09-05T16:52:23.451Z,4.70
2023-09-05T16:55:04.104Z,7.80
2023-09-05T16:58:01.553Z,10.10
2023-09-05T17:00:53.562Z,10.00
2023-09-05T17:06:08.114Z,5.10
2023-09-05T17:08:40.665Z,12.00
2023-09-05T17:11:28.489Z,9.40
2023-09-05T17:14:27.376Z,5.60
2023-09-05T17:17:06.877Z,4.30
2023-09-05T17:19:50.634Z,6.20
2023-09-05T17:22:22.739Z,9.70
2023-09-05T17:25:16.094Z,16.70
2023-09-05T17:27:57.856Z,13.20
2023-09-05T17:30:36.996Z,17.00
2023-09-05T17:33:18.118Z,33.60
2023-09-05T17:36:13.336Z,13.50
2023-09-05T17:38:48.403Z,12.90
2023-09-05T17:41:23.308Z,9.10
2023-09-05T17:43:57.491Z,58.60
2023-09-05T17:46:46.474Z,20.90
2023-09-05T17:49:20.165Z,13.50
2023-09-05T17:51:52.257Z,18.70
2023-09-05T17:54:44.892Z,14.90
2023-09-05T17:57:16.876Z,17.10
2023-09-05T18:00:15.462Z,11.00
2023-09-05T18:03:11.740Z,13.60
2023-09-05T18:05:51.461Z,14.40
2023-09-05T18:08:44.591Z,12.20
2023-09-05T18:14:21.876Z,16.10
2023-09-05T18:17:13.780Z,20.20
2023-09-05T18:20:02.419Z,19.90
2023-09-05T18:22:44.987Z,19.30
2023-09-05T18:28:10.122Z,24.30
2023-09-05T18:31:20.430Z,20.30
2023-09-05T18:34:30.623Z,22.20
2023-09-05T18:37:06.585Z,35.60
2023-09-05T18:39:38.527Z,26.60
2023-09-05T18:42:40.197Z,15.50
2023-09-05T18:45:41.468Z,13.30
2023-09-05T18:48:13.950Z,12.60
2023-09-05T18:51:23.746Z,13.00
2023-09-05T18:54:37.421Z,12.50
2023-09-05T18:57:32.514Z,12.50
2023-09-05T19:00:23.815Z,12.50
2023-09-05T19:02:55.795Z,7.70
2023-09-05T19:05:34.724Z,11.60
2023-09-05T19:08:07.145Z,12.90
2023-09-05T19:10:39.518Z,13.30
2023-09-05T19:13:12.568Z,10.30
2023-09-05T19:15:47.045Z,12.20
2023-09-05T19:18:47.164Z,12.70
2023-09-05T19:21:45.885Z,10.50
2023-09-05T19:24:59.110Z,11.30
2023-09-05T19:27:51.723Z,16.60
2023-09-05T19:30:24.183Z,17.20
2023-09-05T19:33:04.631Z,12.00
2023-09-05T19:35:38.946Z,13.00
2023-09-05T19:38:13.867Z,13.30
2023-09-05T19:40:46.479Z,10.00
2023-09-05T19:43:22.765Z,14.50
2023-09-05T19:46:06.199Z,13.90
2023-09-05T19:48:43.425Z,11.20
2023-09-05T19:51:35.296Z,9.80
2023-09-05T19:54:07.468Z,11.20
2023-09-05T19:57:05.160Z,9.40
2023-09-05T19:59:50.481Z,10.20
2023-09-05T20:02:37.824Z,9.40
2023-09-05T20:05:50.143Z,8.60
2023-09-05T20:10:59.897Z,7.50
2023-09-05T20:13:31.583Z,8.40
2023-09-05T20:16:03.653Z,10.20
2023-09-05T20:18:35.612Z,7.50
2023-09-05T20:21:10.716Z,7.90
2023-09-05T20:23:42.404Z,5.80
2023-09-05T20:26:14.270Z,9.70
2023-09-05T20:28:45.894Z,5.80
2023-09-05T20:31:17.603Z,7.50
2023-09-05T20:33:49.404Z,6.30
2023-09-05T20:36:21.421Z,5.50
2023-09-05T20:38:53.097Z,7.80
2023-09-05T20:41:25.367Z,5.60
2023-09-05T20:43:57.059Z,5.70
2023-09-05T20:46:28.815Z,4.80
2023-09-05T20:49:00.714Z,9.60
2023-09-05T20:51:33.217Z,6.40
2023-09-05T20:54:06.230Z,4.70
2023-09-05T20:56:41.952Z,5.70
2023-09-05T20:59:14.469Z,5.40
2023-09-05T21:01:46.818Z,6.30
2023-09-05T21:04:18.841Z,5.40
2023-09-05T21:06:50.691Z,5.20
2023-09-05T21:09:23.608Z,7.80
2023-09-05T21:11:55.320Z,5.30
2023-09-05T21:14:26.917Z,5.30
2023-09-05T21:16:58.526Z,5.20
2023-09-05T21:19:30.138Z,7.10
2023-09-05T21:22:02.118Z,5.20
2023-09-05T21:24:36.932Z,6.10
2023-09-05T21:27:08.604Z,5.40
2023-09-05T21:29:40.181Z,5.90
2023-09-05T21:32:11.861Z,6.40
2023-09-05T21:34:45.672Z,4.90
2023-09-05T21:39:48.852Z,6.60
2023-09-05T21:42:22.207Z,5.00
2023-09-05T21:44:55.779Z,5.60
2023-09-05T21:47:27.680Z,6.00
2023-09-05T21:49:59.283Z,5.10
2023-09-05T21:52:31.050Z,5.40
2023-09-05T21:55:02.765Z,5.90
2023-09-05T21:57:35.294Z,6.00
2023-09-05T22:00:07.850Z,6.00
2023-09-05T22:02:40.305Z,6.30
2023-09-05T22:05:13.111Z,5.60
2023-09-05T22:07:46.134Z,5.00
2023-09-05T22:10:17.742Z,5.20
2023-09-05T22:12:49.401Z,7.10
2023-09-05T22:15:21.099Z,7.20
2023-09-05T22:17:54.084Z,5.40
2023-09-05T22:20:26.828Z,5.80
2023-09-05T22:22:58.459Z,5.40
2023-09-05T22:25:30.497Z,5.30
2023-09-05T22:28:04.133Z,6.40
2023-09-05T22:30:35.955Z,5.70
2023-09-05T22:33:09.027Z,5.50
2023-09-05T22:35:41.162Z,5.10
2023-09-05T22:38:12.775Z,7.10
2023-09-05T22:40:44.357Z,7.20
2023-09-05T22:43:16.649Z,5.20
2023-09-05T22:45:48.345Z,6.00
2023-09-05T22:48:20.889Z,5.60
2023-09-05T22:50:52.545Z,5.40
2023-09-05T22:53:28.177Z,5.50
2023-09-05T22:56:12.976Z,7.90
2023-09-05T22:58:52.864Z,5.60
2023-09-05T23:01:24.535Z,6.80
2023-09-05T23:03:56.343Z,5.90
2023-09-05T23:06:28.116Z,7.40
2023-09-05T23:09:00.059Z,6.30
2023-09-05T23:11:31.767Z,6.70
2023-09-05T23:14:03.560Z,5.70
2023-09-05T23:16:36.437Z,6.90
2023-09-05T23:19:09.561Z,6.10
2023-09-05T23:21:45.061Z,5.70
2023-09-05T23:24:16.891Z,7.10
2023-09-05T23:26:48.536Z,5.70
2023-09-05T23:29:20.128Z,6.30
2023-09-05T23:31:54.049Z,5.50
2023-09-05T23:34:28.585Z,6.40
2023-09-05T23:37:00.311Z,5.80
2023-09-05T23:39:33.384Z,6.20
2023-09-05T23:42:08.601Z,8.10
2023-09-05T23:44:42.015Z,5.90
2023-09-05T23:47:13.678Z,6.50
2023-09-05T23:49:46.701Z,6.20
2023-09-05T23:52:18.992Z,6.60
2023-09-05T23:54:50.687Z,7.00
2023-09-05T23:57:22.390Z,6.60
2023-09-05T23:59:56.266Z,7.30
